Time;durP1;ratioP1;P1;durP2;ratioP2;P2;SDS_P1;SDS_P2;PMS_P1;PMS_P2;Temp;Humidity;BMP_temperature;BMP_pressure;BME280_temperature;BME280_humidity;BME280_pressure;Samples;Min_cycle;Max_cycle;Signal;HPM_P1;HPM_P2
2024/03/11 00:02:23;;;;;;;26.33;21.67;;;;;;;9.36;80.50;99060.03;5032331;28;20203;-78
2024/03/11 00:04:50;;;;;;;28.13;22.37;;;;;;;9.32;81.11;99050.63;5032151;28;20206;-77
2024/03/11 00:07:16;;;;;;;28.93;23.00;;;;;;;9.31;81.24;99052.34;5032034;28;20280;-77
2024/03/11 00:09:44;;;;;;;24.77;22.10;;;;;;;9.29;81.54;99035.09;5031715;28;20300;-78
2024/03/11 00:12:10;;;;;;;25.70;22.83;;;;;;;9.29;81.45;99033.34;5032295;28;20297;-77
2024/03/11 00:14:40;;;;;;;24.07;21.67;;;;;;;9.28;81.31;99030.81;5031952;28;20690;-77
2024/03/11 00:17:08;;;;;;;25.50;22.30;;;;;;;9.26;81.43;99038.69;5032032;28;20233;-78
2024/03/11 00:19:36;;;;;;;24.00;21.43;;;;;;;9.26;81.16;99030.88;5037931;28;20231;-77
2024/03/11 00:22:02;;;;;;;28.00;23.20;;;;;;;9.27;81.52;99037.75;5031685;28;20620;-77
2024/03/11 00:24:29;;;;;;;23.83;21.33;;;;;;;9.29;81.36;99029.91;5031780;28;20211;-77
2024/03/11 00:26:56;;;;;;;24.90;22.33;;;;;;;9.29;81.50;99035.09;5031807;28;20238;-77
2024/03/11 00:29:22;;;;;;;27.47;21.90;;;;;;;9.25;81.75;99036.13;5031459;28;20300;-78
2024/03/11 00:31:50;;;;;;;23.57;21.30;;;;;;;9.24;81.78;99030.06;5031508;28;20206;-77
2024/03/11 00:34:17;;;;;;;24.60;21.17;;;;;;;9.23;82.01;99032.72;5032016;28;20212;-77
2024/03/11 00:36:45;;;;;;;24.20;21.60;;;;;;;9.24;81.74;99026.63;5031599;28;20206;-76
2024/03/11 00:39:15;;;;;;;23.40;21.00;;;;;;;9.23;81.84;99024.91;5031588;28;20230;-77
2024/03/11 00:41:41;;;;;;;25.50;22.00;;;;;;;9.29;81.83;99024.69;5031843;28;20239;-77
2024/03/11 00:44:08;;;;;;;25.97;22.43;;;;;;;9.31;81.65;99034.13;5031607;28;20732;-77
2024/03/11 00:46:35;;;;;;;27.83;22.33;;;;;;;9.35;80.90;99042.69;5031643;28;20280;-78
2024/03/11 00:49:02;;;;;;;24.70;22.00;;;;;;;9.31;80.91;99052.34;5036593;28;20307;-78
2024/03/11 00:51:29;;;;;;;27.10;23.07;;;;;;;9.24;81.51;99044.84;5032138;28;20202;-78
2024/03/11 00:53:57;;;;;;;24.70;21.70;;;;;;;9.20;81.91;99045.88;5031724;28;20202;-76
2024/03/11 00:56:24;;;;;;;29.43;22.67;;;;;;;9.18;81.76;99042.44;5031647;28;20203;-78
2024/03/11 00:58:51;;;;;;;26.57;21.37;;;;;;;9.20;82.14;99032.84;5031252;28;20230;-77
2024/03/11 01:01:18;;;;;;;27.83;21.57;;;;;;;9.20;82.47;99027.66;5031466;28;20677;-78
2024/03/11 01:03:45;;;;;;;25.30;22.53;;;;;;;9.22;82.21;99028.44;5031461;28;20244;-78
2024/03/11 01:06:11;;;;;;;28.67;22.43;;;;;;;9.23;81.94;99025.75;5031563;28;20226;-78
2024/03/11 01:08:38;;;;;;;28.03;21.90;;;;;;;9.26;81.89;99028.25;5031527;28;20239;-77
2024/03/11 01:11:06;;;;;;;23.80;21.23;;;;;;;9.28;81.40;99036.03;5032281;28;20331;-78
2024/03/11 01:13:33;;;;;;;30.30;22.77;;;;;;;9.29;80.96;99045.53;5031818;28;20601;-77
2024/03/11 01:16:00;;;;;;;26.40;22.33;;;;;;;9.26;81.13;99040.44;5031876;28;20210;-78
2024/03/11 01:18:26;;;;;;;26.10;21.97;;;;;;;9.24;81.37;99050.06;5031767;28;20230;-77
2024/03/11 01:20:54;;;;;;;25.60;21.63;;;;;;;9.17;81.65;99038.16;5036887;28;20222;-76
2024/03/11 01:23:21;;;;;;;25.50;21.20;;;;;;;9.17;81.77;99038.16;5031398;28;20604;-77
2024/03/11 01:25:47;;;;;;;24.67;22.13;;;;;;;9.13;81.91;99029.59;5031247;28;20742;-77
2024/03/11 01:28:15;;;;;;;23.93;21.43;;;;;;;9.15;81.71;99023.44;5031148;28;20259;-77
2024/03/11 01:30:41;;;;;;;29.87;21.80;;;;;;;9.12;81.58;99033.97;5031283;28;20694;-76
2024/03/11 01:33:08;;;;;;;23.77;21.07;;;;;;;9.14;81.54;99029.56;5031134;28;20225;-77
2024/03/11 01:35:37;;;;;;;28.33;23.53;;;;;;;9.08;81.88;99028.94;5039074;28;20233;-77
2024/03/11 01:38:03;;;;;;;23.90;21.20;;;;;;;9.06;82.00;99017.72;5051122;28;20238;-77
2024/03/11 01:40:30;;;;;;;26.73;21.37;;;;;;;9.05;82.16;99016.84;5050828;28;20261;-78
2024/03/11 01:42:56;;;;;;;27.60;22.57;;;;;;;9.04;81.92;99011.69;5054419;28;20734;-76
2024/03/11 01:45:24;;;;;;;24.93;21.50;;;;;;;8.95;82.42;99011.13;5054662;28;20229;-77
2024/03/11 01:47:52;;;;;;;29.47;22.10;;;;;;;9.04;81.84;99012.56;5054433;28;20257;-77
2024/03/11 01:50:19;;;;;;;25.30;22.60;;;;;;;9.08;81.28;99028.94;5045088;28;20227;-77
2024/03/11 01:52:49;;;;;;;24.70;21.73;;;;;;;9.08;80.91;99034.97;5034657;28;20288;-77
2024/03/11 01:55:16;;;;;;;25.00;21.20;;;;;;;9.04;81.59;99030.78;5034616;28;20216;-77
2024/03/11 01:57:46;;;;;;;28.03;22.20;;;;;;;9.00;81.65;99018.78;5034441;28;20581;-76
2024/03/11 02:00:13;;;;;;;25.53;21.63;;;;;;;8.95;81.95;99018.94;5034242;28;20839;-78
2024/03/11 02:02:41;;;;;;;25.50;21.70;;;;;;;8.99;82.26;99011.03;5034476;28;20582;-77
2024/03/11 02:05:13;;;;;;;25.90;22.40;;;;;;;8.98;82.18;99009.31;5034429;28;20216;-78
2024/03/11 02:07:39;;;;;;;24.10;21.73;;;;;;;8.99;82.27;99005.81;5034482;28;20222;-77
2024/03/11 02:10:08;;;;;;;28.47;22.27;;;;;;;8.95;82.46;99000.72;5033984;28;20324;-78
2024/03/11 02:12:35;;;;;;;26.77;23.07;;;;;;;9.03;81.56;99000.44;5034181;28;20202;-77
2024/03/11 02:15:01;;;;;;;26.10;21.30;;;;;;;9.09;80.94;99012.41;5034226;28;20673;-78
2024/03/11 02:17:27;;;;;;;27.57;22.77;;;;;;;9.07;81.31;99022.84;5046849;28;20202;-77
2024/03/11 02:19:55;;;;;;;29.03;21.97;;;;;;;9.04;81.56;99016.91;5048091;28;20705;-76
2024/03/11 02:22:21;;;;;;;23.43;21.03;;;;;;;9.07;81.20;99024.63;5034000;28;20286;-77
2024/03/11 02:24:49;;;;;;;27.07;21.17;;;;;;;9.06;81.08;99028.13;5033928;28;20705;-76
2024/03/11 02:27:15;;;;;;;24.57;21.93;;;;;;;9.07;80.95;99032.41;5033898;28;20227;-77
2024/03/11 02:29:42;;;;;;;23.47;20.93;;;;;;;9.09;80.46;99035.81;5033894;28;20289;-75
2024/03/11 02:32:08;;;;;;;23.37;20.43;;;;;;;8.99;81.56;99027.47;5034126;28;20214;-77
2024/03/11 02:34:34;;;;;;;25.03;21.80;;;;;;;9.04;80.92;99027.31;5033964;28;20674;-76
2024/03/11 02:37:01;;;;;;;22.73;20.43;;;;;;;9.03;81.06;99026.47;5033771;28;20241;-77
2024/03/11 02:39:29;;;;;;;22.97;20.57;;;;;;;9.00;81.54;99016.19;5033473;28;20736;-76
2024/03/11 02:41:57;;;;;;;25.73;22.30;;;;;;;8.93;82.36;99005.13;5033676;28;20241;-77
2024/03/11 02:44:23;;;;;;;26.07;22.20;;;;;;;8.93;82.19;99001.69;5033895;28;20253;-77
2024/03/11 02:46:49;;;;;;;25.40;21.30;;;;;;;8.95;82.10;98992.06;5033505;28;20253;-76
2024/03/11 02:49:16;;;;;;;24.03;21.07;;;;;;;8.90;82.13;98993.97;5040351;28;20238;-78
2024/03/11 02:51:43;;;;;;;27.93;21.77;;;;;;;8.89;82.76;98981.88;5033495;28;20200;-77
2024/03/11 02:54:09;;;;;;;26.87;21.47;;;;;;;8.84;82.88;98976.84;5032752;28;20210;-77
2024/03/11 02:56:36;;;;;;;26.20;21.20;;;;;;;8.85;83.18;98973.31;5033372;28;20819;-77
2024/03/11 02:59:04;;;;;;;24.77;22.03;;;;;;;8.86;83.12;98967.22;5033266;28;20232;-78
2024/03/11 03:01:30;;;;;;;26.23;22.87;;;;;;;8.87;82.85;98968.91;5033403;28;20210;-77
2024/03/11 03:03:58;;;;;;;23.50;21.07;;;;;;;8.90;83.22;98965.34;5033492;28;20206;-78
2024/03/11 03:06:26;;;;;;;25.60;21.13;;;;;;;8.87;83.48;98965.47;5033191;28;20210;-78
2024/03/11 03:08:53;;;;;;;24.83;21.53;;;;;;;8.93;82.59;98958.28;5032656;28;20678;-77
2024/03/11 03:11:20;;;;;;;23.80;21.33;;;;;;;8.97;82.06;98976.41;5033392;28;20206;-78
2024/03/11 03:13:46;;;;;;;24.93;21.33;;;;;;;8.98;82.28;98978.97;5033257;28;20242;-77
2024/03/11 03:16:14;;;;;;;23.33;20.90;;;;;;;8.98;82.05;98981.56;5033037;28;20717;-77
2024/03/11 03:18:40;;;;;;;23.00;20.73;;;;;;;9.00;82.44;98984.09;5035046;28;20206;-75
2024/03/11 03:21:07;;;;;;;27.37;21.67;;;;;;;8.98;82.76;98971.16;5037954;28;20241;-77
2024/03/11 03:23:33;;;;;;;25.33;21.43;;;;;;;8.97;82.87;98964.22;5032744;28;20325;-77
2024/03/11 03:25:59;;;;;;;23.87;21.47;;;;;;;8.95;82.80;98963.44;5033081;28;20210;-78
2024/03/11 03:28:26;;;;;;;25.00;22.43;;;;;;;8.98;82.46;98959.88;5032797;28;20265;-78
2024/03/11 03:30:53;;;;;;;25.00;21.50;;;;;;;8.98;82.33;98962.47;5032651;28;20227;-77
2024/03/11 03:33:21;;;;;;;22.47;20.17;;;;;;;8.99;82.53;98951.16;5032777;28;20203;-77
2024/03/11 03:35:48;;;;;;;24.27;20.83;;;;;;;9.01;82.07;98971.03;5032834;28;20206;-77
2024/03/11 03:38:15;;;;;;;24.67;22.07;;;;;;;8.92;82.53;98977.41;5032416;28;20237;-77
2024/03/11 03:40:41;;;;;;;29.87;23.27;;;;;;;8.89;83.03;98972.31;5032542;28;20227;-78
2024/03/11 03:43:07;;;;;;;26.47;21.23;;;;;;;8.85;83.35;98975.09;5032650;28;20261;-77
2024/03/11 03:45:34;;;;;;;24.10;21.00;;;;;;;8.85;83.37;98975.94;5032463;28;20233;-76
2024/03/11 03:48:01;;;;;;;24.57;20.17;;;;;;;8.91;83.33;98969.66;5032256;28;20222;-76
2024/03/11 03:50:29;;;;;;;26.57;22.37;;;;;;;8.91;82.90;98973.09;5039736;28;20230;-78
2024/03/11 03:52:56;;;;;;;26.43;21.03;;;;;;;8.86;83.41;98977.63;5032499;28;20209;-77
2024/03/11 03:55:23;;;;;;;23.23;20.70;;;;;;;8.88;83.30;98967.16;5032478;28;20253;-77
2024/03/11 03:57:50;;;;;;;26.17;21.10;;;;;;;8.88;83.75;98961.94;5032136;28;20674;-77
2024/03/11 04:00:17;;;;;;;26.47;22.20;;;;;;;8.91;83.19;98961.84;5032085;28;20230;-76
2024/03/11 04:02:44;;;;;;;22.87;20.50;;;;;;;8.94;82.59;98965.19;5032285;28;20218;-77
2024/03/11 04:05:11;;;;;;;23.37;20.70;;;;;;;8.99;82.08;98979.78;5031233;28;20233;-77
2024/03/11 04:07:40;;;;;;;24.67;22.07;;;;;;;8.91;82.48;98993.09;5032362;28;20226;-78
2024/03/11 04:10:08;;;;;;;23.43;21.03;;;;;;;8.88;82.84;99004.47;5031878;28;20720;-77
2024/03/11 04:12:38;;;;;;;24.67;20.23;;;;;;;8.87;83.18;98999.31;5032169;28;20252;-77
2024/03/11 04:15:05;;;;;;;23.57;21.20;;;;;;;8.89;83.02;98994.88;5032055;28;20585;-78
2024/03/11 04:17:32;;;;;;;26.17;21.40;;;;;;;8.90;82.91;99006.97;5031824;28;20202;-77
2024/03/11 04:19:59;;;;;;;23.60;20.80;;;;;;;8.90;83.11;98997.44;5039736;28;20312;-77
2024/03/11 04:22:26;;;;;;;24.50;20.73;;;;;;;8.87;83.66;98989.72;5031692;28;20697;-75
2024/03/11 04:24:55;;;;;;;22.90;20.60;;;;;;;8.89;83.58;98979.28;5031973;28;20203;-77
2024/03/11 04:27:22;;;;;;;27.27;21.90;;;;;;;8.93;82.82;98986.06;5031775;28;20226;-78
2024/03/11 04:29:49;;;;;;;25.53;21.10;;;;;;;8.98;82.34;98991.09;5031586;28;20313;-78
2024/03/11 04:32:15;;;;;;;23.93;21.33;;;;;;;9.01;81.63;99012.66;5031629;28;20202;-78
2024/03/11 04:34:41;;;;;;;22.63;20.23;;;;;;;9.01;82.31;99006.63;5031997;28;20235;-77
2024/03/11 04:37:08;;;;;;;29.27;24.10;;;;;;;9.03;81.67;99002.22;5031577;28;20692;-77
2024/03/11 04:39:34;;;;;;;25.30;22.50;;;;;;;8.95;82.31;99005.06;5031765;28;20226;-77
2024/03/11 04:42:02;;;;;;;29.67;26.57;;;;;;;8.89;83.06;98992.28;5031623;28;20620;-77
2024/03/11 04:44:29;;;;;;;32.27;23.40;;;;;;;8.86;83.44;98982.84;5031562;28;20572;-76
2024/03/11 04:46:56;;;;;;;27.67;22.97;;;;;;;8.90;82.79;98970.56;5031428;28;20677;-77
2024/03/11 04:49:22;;;;;;;39.47;28.50;;;;;;;8.83;83.12;98972.53;5031456;28;20249;-77
2024/03/11 04:51:48;;;;;;;52.73;33.50;;;;;;;8.89;82.82;98959.31;5031533;28;20202;-77
2024/03/11 04:54:16;;;;;;;45.63;35.03;;;;;;;8.85;83.23;98970.72;5031656;28;20229;-78
2024/03/11 04:56:43;;;;;;;32.70;25.37;;;;;;;8.81;83.89;98973.50;5031578;28;20261;-78
2024/03/11 04:59:12;;;;;;;23.83;21.33;;;;;;;8.80;84.27;98956.19;5031109;28;20223;-77
2024/03/11 05:01:38;;;;;;;26.50;22.47;;;;;;;8.77;84.81;98949.34;5031646;28;20216;-77
2024/03/11 05:04:04;;;;;;;26.27;21.30;;;;;;;8.70;85.11;98935.72;5031753;28;20208;-77
2024/03/11 05:06:31;;;;;;;23.70;21.37;;;;;;;8.73;85.46;98919.13;5031393;28;20212;-77
2024/03/11 05:08:57;;;;;;;24.40;20.97;;;;;;;8.69;86.08;98912.34;5030978;28;20271;-77
2024/03/11 05:11:24;;;;;;;25.70;22.90;;;;;;;8.68;85.66;98901.09;5031511;28;20362;-78
2024/03/11 05:13:50;;;;;;;26.83;22.07;;;;;;;8.68;85.80;98903.69;5031272;28;20210;-77
2024/03/11 05:16:19;;;;;;;25.63;22.87;;;;;;;8.71;86.35;98894.94;5032528;28;20211;-77
2024/03/11 05:18:45;;;;;;;25.03;21.90;;;;;;;8.69;86.20;98892.38;5034911;28;20819;-78
2024/03/11 05:21:12;;;;;;;27.53;22.93;;;;;;;8.66;86.80;98881.22;5035468;28;20238;-77
2024/03/11 05:23:38;;;;;;;23.67;21.27;;;;;;;8.66;86.49;98883.84;5035422;28;20238;-77
2024/03/11 05:26:05;;;;;;;25.27;22.40;;;;;;;8.67;86.41;98886.38;5035160;28;20211;-77
2024/03/11 05:28:31;;;;;;;28.00;22.33;;;;;;;8.67;86.80;98890.75;5034861;28;20229;-78
2024/03/11 05:30:58;;;;;;;23.87;21.17;;;;;;;8.65;87.16;98889.94;5034793;28;20579;-78
2024/03/11 05:33:25;;;;;;;23.00;20.67;;;;;;;8.68;86.31;98903.69;5035635;28;20245;-77
2024/03/11 05:35:52;;;;;;;30.43;22.33;;;;;;;8.70;86.46;98904.50;5035035;28;20202;-78
2024/03/11 05:38:18;;;;;;;26.10;23.30;;;;;;;8.67;87.31;98891.59;5035034;28;20198;-76
2024/03/11 05:40:47;;;;;;;26.93;22.17;;;;;;;8.73;86.97;98888.75;5034526;28;20720;-77
2024/03/11 05:43:13;;;;;;;24.90;22.30;;;;;;;8.74;86.58;98887.88;5035035;28;20206;-78
2024/03/11 05:45:40;;;;;;;28.23;22.70;;;;;;;8.72;86.60;98894.88;5034954;28;20261;-77
2024/03/11 05:48:08;;;;;;;27.50;23.07;;;;;;;8.77;87.16;98894.69;5034737;28;20226;-78
2024/03/11 05:50:37;;;;;;;25.53;21.40;;;;;;;8.79;87.04;98899.84;5034586;28;20222;-77
2024/03/11 05:53:04;;;;;;;26.10;21.87;;;;;;;8.74;87.42;98900.00;5034634;28;20694;-77
2024/03/11 05:55:32;;;;;;;26.23;20.90;;;;;;;8.76;87.41;98895.63;5034384;28;20260;-77
2024/03/11 05:58:02;;;;;;;23.07;20.50;;;;;;;8.73;88.20;98886.16;5034617;28;20205;-77
2024/03/11 06:00:31;;;;;;;26.20;22.73;;;;;;;8.69;88.09;98888.94;5034408;28;20275;-78
2024/03/11 06:02:57;;;;;;;27.83;22.40;;;;;;;8.72;88.39;98886.22;5034527;28;20214;-77
2024/03/11 06:05:24;;;;;;;27.83;22.73;;;;;;;8.69;88.42;98888.94;5035686;28;20267;-77
2024/03/11 06:07:52;;;;;;;24.40;21.40;;;;;;;8.72;88.55;98883.59;5034180;28;20287;-77
2024/03/11 06:10:19;;;;;;;25.97;22.00;;;;;;;8.73;88.40;98880.97;5034018;28;20236;-78
2024/03/11 06:12:46;;;;;;;26.80;22.57;;;;;;;8.72;88.92;98886.22;5037674;28;20205;-76
2024/03/11 06:15:12;;;;;;;27.77;23.17;;;;;;;8.69;88.79;98878.53;5053620;28;20571;-76
2024/03/11 06:17:38;;;;;;;31.30;24.73;;;;;;;8.69;89.01;98874.16;5054212;28;20239;-77
2024/03/11 06:20:09;;;;;;;32.90;25.00;;;;;;;8.74;89.00;98879.19;5054602;28;20294;-78
2024/03/11 06:22:36;;;;;;;32.83;23.97;;;;;;;8.73;89.20;98873.16;5060305;28;20210;-81
2024/03/11 06:25:05;;;;;;;26.20;23.47;;;;;;;8.78;88.49;98877.34;5062602;28;20297;-80
2024/03/11 06:27:32;;;;;;;32.27;25.27;;;;;;;8.85;87.51;98904.84;5058402;28;20255;-78
2024/03/11 06:29:58;;;;;;;31.27;24.57;;;;;;;8.91;86.71;98921.06;5057602;28;20225;-78
2024/03/11 06:32:30;;;;;;;36.20;27.73;;;;;;;8.88;87.13;98933.31;5057080;28;20205;-82
2024/03/11 06:34:56;;;;;;;41.93;29.53;;;;;;;8.84;88.00;98926.53;5045925;28;20233;-80
2024/03/11 06:37:23;;;;;;;40.10;28.37;;;;;;;8.79;88.28;98911.09;5038680;28;20210;-80
2024/03/11 06:39:49;;;;;;;34.93;26.83;;;;;;;8.80;88.97;98911.94;5037133;28;20272;-80
2024/03/11 06:42:17;;;;;;;32.60;24.63;;;;;;;8.82;88.84;98915.34;5037258;28;20206;-80
2024/03/11 06:44:43;;;;;;;29.57;24.33;;;;;;;8.77;88.72;98919.88;5042830;28;20620;-80
2024/03/11 06:47:11;;;;;;;30.93;24.63;;;;;;;8.79;88.85;98918.06;5042092;28;20665;-81
2024/03/11 06:49:38;;;;;;;30.47;23.83;;;;;;;8.81;88.55;98929.28;5041213;28;20237;-80
2024/03/11 06:52:06;;;;;;;26.33;23.50;;;;;;;8.81;88.82;98932.72;5047074;28;20317;-80
2024/03/11 06:54:33;;;;;;;26.13;22.37;;;;;;;8.81;88.91;98940.53;5044475;28;20795;-82
2024/03/11 06:57:00;;;;;;;25.93;23.13;;;;;;;8.83;88.74;98938.72;5042070;28;20699;-83
2024/03/11 06:59:29;;;;;;;28.13;22.27;;;;;;;8.83;88.99;98937.88;5042629;28;20601;-82
2024/03/11 07:01:55;;;;;;;27.13;22.83;;;;;;;8.88;89.87;98936.81;5033706;28;20579;-77
2024/03/11 07:04:21;;;;;;;33.80;24.40;;;;;;;8.89;89.66;98929.84;5034468;28;20288;-77
2024/03/11 07:06:48;;;;;;;26.27;23.47;;;;;;;8.91;89.17;98947.09;5032531;28;20260;-77
2024/03/11 07:09:15;;;;;;;32.60;23.70;;;;;;;8.93;88.89;98953.06;5032366;28;20261;-78
2024/03/11 07:11:42;;;;;;;29.20;23.80;;;;;;;8.94;88.92;98966.97;5032439;28;20248;-77
2024/03/11 07:14:13;;;;;;;28.73;23.13;;;;;;;8.97;88.81;98969.44;5033586;28;20298;-77
2024/03/11 07:16:42;;;;;;;26.13;23.37;;;;;;;9.04;89.73;98954.44;5033265;28;20216;-76
2024/03/11 07:19:09;;;;;;;30.10;23.63;;;;;;;9.09;89.12;98957.72;5034789;28;20274;-77
2024/03/11 07:21:35;;;;;;;30.83;24.03;;;;;;;9.08;88.94;98966.47;5033703;28;20209;-77
2024/03/11 07:24:02;;;;;;;32.17;25.17;;;;;;;9.08;88.60;98982.91;5033174;28;20297;-77
2024/03/11 07:26:29;;;;;;;31.67;24.73;;;;;;;9.11;88.34;98993.19;5032810;28;20681;-77
2024/03/11 07:28:56;;;;;;;30.03;23.93;;;;;;;9.13;88.69;99003.56;5032666;28;20697;-77
2024/03/11 07:31:22;;;;;;;26.53;23.90;;;;;;;9.11;88.36;99001.00;5032952;28;20751;-77
2024/03/11 07:33:50;;;;;;;37.70;25.73;;;;;;;9.12;88.37;99010.53;5035453;28;20291;-77
2024/03/11 07:36:18;;;;;;;31.20;24.30;;;;;;;9.10;88.41;99014.94;5032417;28;20720;-77
2024/03/11 07:38:44;;;;;;;32.33;24.63;;;;;;;9.15;87.75;99023.44;5032385;28;20292;-77
2024/03/11 07:41:11;;;;;;;32.03;25.33;;;;;;;9.18;87.45;99032.03;5032689;28;20206;-76
2024/03/11 07:43:37;;;;;;;30.70;24.93;;;;;;;9.20;86.81;99046.72;5032397;28;20656;-77
2024/03/11 07:46:04;;;;;;;34.03;26.50;;;;;;;9.21;87.30;99047.56;5032914;28;20206;-77
2024/03/11 07:48:30;;;;;;;29.03;25.93;;;;;;;9.22;87.90;99038.84;5032478;28;20269;-77
2024/03/11 07:50:58;;;;;;;33.13;27.43;;;;;;;9.27;86.80;99040.34;5032411;28;20227;-77
2024/03/11 07:53:24;;;;;;;33.07;26.33;;;;;;;9.27;87.16;99053.38;5032789;28;20206;-77
2024/03/11 07:55:51;;;;;;;33.93;26.83;;;;;;;9.30;87.92;99055.88;5032637;28;20635;-77
2024/03/11 07:58:17;;;;;;;35.07;26.60;;;;;;;9.32;87.91;99053.22;5032575;28;20206;-77
2024/03/11 08:00:44;;;;;;;33.53;26.27;;;;;;;9.38;87.26;99060.81;5032230;28;20227;-77
2024/03/11 08:03:10;;;;;;;33.20;27.20;;;;;;;9.41;87.56;99068.50;5032750;28;20704;-77
2024/03/11 08:05:37;;;;;;;31.87;27.10;;;;;;;9.47;87.48;99059.63;5034774;28;20234;-77
2024/03/11 08:08:07;;;;;;;36.70;27.50;;;;;;;9.55;87.88;99062.78;5032057;28;20691;-77
2024/03/11 08:10:34;;;;;;;39.70;28.83;;;;;;;9.64;88.19;99067.66;5031849;28;20234;-77
2024/03/11 08:13:01;;;;;;;35.10;26.73;;;;;;;9.73;89.08;99048.22;5032108;28;20206;-77
2024/03/11 08:15:28;;;;;;;36.67;26.50;;;;;;;9.80;88.87;99049.69;5032207;28;20231;-77
2024/03/11 08:17:55;;;;;;;35.03;26.83;;;;;;;9.86;88.46;99051.22;5032099;28;20669;-77
2024/03/11 08:20:21;;;;;;;33.53;25.97;;;;;;;9.94;88.28;99062.19;5031967;28;20232;-77
2024/03/11 08:22:49;;;;;;;28.70;25.40;;;;;;;9.97;87.96;99066.44;5032150;28;20210;-76
2024/03/11 08:25:20;;;;;;;35.87;28.77;;;;;;;9.99;87.13;99080.25;5032457;28;20213;-78
2024/03/11 08:27:48;;;;;;;32.87;27.23;;;;;;;10.03;87.64;99084.44;5031855;28;20306;-77
2024/03/11 08:30:15;;;;;;;30.17;26.90;;;;;;;10.09;87.04;99095.50;5031476;28;20784;-77
2024/03/11 08:32:42;;;;;;;29.83;26.80;;;;;;;10.14;86.57;99106.59;5031920;28;20209;-77
2024/03/11 08:35:09;;;;;;;33.03;27.03;;;;;;;10.19;85.96;99114.25;5034663;28;20535;-76
2024/03/11 08:37:35;;;;;;;31.07;27.70;;;;;;;10.17;86.23;99123.03;5047239;28;20283;-77
2024/03/11 08:40:04;;;;;;;30.77;26.90;;;;;;;10.24;86.89;99114.06;5051214;28;20698;-77
2024/03/11 08:42:31;;;;;;;31.33;28.00;;;;;;;10.28;87.23;99105.22;5051887;28;20280;-77
2024/03/11 08:44:58;;;;;;;29.30;26.00;;;;;;;10.36;86.08;99118.84;5051681;28;20212;-77
2024/03/11 08:47:27;;;;;;;33.40;27.17;;;;;;;10.43;85.39;99140.31;5051476;28;20677;-78
2024/03/11 08:49:53;;;;;;;30.70;27.00;;;;;;;10.54;85.00;99153.78;5051535;28;20320;-77
2024/03/11 08:52:19;;;;;;;32.50;26.37;;;;;;;10.60;85.00;99166.56;5057118;28;20236;-77
2024/03/11 08:54:46;;;;;;;31.83;25.97;;;;;;;10.63;85.02;99170.84;5057989;28;20695;-77
2024/03/11 08:57:13;;;;;;;29.57;26.47;;;;;;;10.63;84.70;99176.91;5058108;28;20276;-77
2024/03/11 08:59:41;;;;;;;30.30;27.10;;;;;;;10.58;85.68;99165.78;5058081;28;20229;-77
2024/03/11 09:02:08;;;;;;;29.50;26.30;;;;;;;10.69;87.11;99123.63;5058032;28;20208;-77
2024/03/11 09:04:35;;;;;;;28.17;25.37;;;;;;;10.77;86.62;99132.00;5051474;28;20203;-78
2024/03/11 09:07:02;;;;;;;26.30;23.90;;;;;;;10.91;85.55;99139.25;5038043;28;20223;-77
2024/03/11 09:09:29;;;;;;;26.50;23.90;;;;;;;10.96;85.39;99149.50;5037987;28;20258;-77
2024/03/11 09:11:57;;;;;;;29.03;25.73;;;;;;;11.06;84.22;99163.88;5038218;28;20203;-77
2024/03/11 09:14:26;;;;;;;28.13;25.27;;;;;;;11.20;83.72;99173.75;5038262;28;20208;-77
2024/03/11 09:16:54;;;;;;;27.87;25.17;;;;;;;11.26;84.14;99190.03;5038361;28;20216;-77
2024/03/11 09:19:21;;;;;;;28.63;25.77;;;;;;;11.20;84.07;99187.66;5037940;28;20234;-77
2024/03/11 09:21:49;;;;;;;28.30;25.37;;;;;;;11.17;84.22;99197.38;5038083;28;20200;-77
2024/03/11 09:24:16;;;;;;;28.50;25.63;;;;;;;11.27;84.61;99199.53;5038606;28;20216;-78
2024/03/11 09:26:42;;;;;;;22.00;20.20;;;;;;;11.19;81.72;99222.53;5040332;28;20239;-79
2024/03/11 09:29:11;;;;;;;16.73;15.33;;;;;;;11.40;81.29;99256.53;5040942;28;20265;-81
2024/03/11 09:31:38;;;;;;;15.70;14.50;;;;;;;11.27;79.92;99303.19;5042728;28;20212;-79
2024/03/11 09:34:07;;;;;;;14.27;13.13;;;;;;;11.50;80.05;99317.94;5043399;28;20209;-79
2024/03/11 09:36:33;;;;;;;13.27;12.17;;;;;;;11.58;78.97;99349.00;5038746;28;20209;-80
2024/03/11 09:39:00;;;;;;;10.57;9.77;;;;;;;11.61;77.08;99372.38;5040029;28;20274;-78
2024/03/11 09:41:27;;;;;;;11.53;10.53;;;;;;;11.66;76.68;99422.72;5039539;28;20232;-78
2024/03/11 09:43:54;;;;;;;10.93;10.13;;;;;;;11.58;75.85;99445.72;5039045;28;20204;-78
2024/03/11 09:46:21;;;;;;;11.00;10.10;;;;;;;11.70;76.68;99461.75;5038498;28;20236;-77
2024/03/11 09:48:51;;;;;;;11.33;10.43;;;;;;;11.59;76.37;99470.91;5038265;28;20592;-79
2024/03/11 09:51:21;;;;;;;10.13;9.43;;;;;;;11.76;76.58;99471.13;5038056;28;20210;-76
2024/03/11 09:53:52;;;;;;;8.83;8.13;;;;;;;11.48;75.49;99502.69;5038639;28;20206;-78
2024/03/11 09:56:20;;;;;;;7.73;7.23;;;;;;;11.63;76.20;99503.88;5038841;28;20235;-78
2024/03/11 09:58:50;;;;;;;7.40;6.80;;;;;;;11.72;75.30;99501.75;5037652;28;20301;-77
2024/03/11 10:01:23;;;;;;;7.27;6.77;;;;;;;11.69;74.13;99525.41;5039565;28;20210;-81
2024/03/11 10:03:50;;;;;;;7.17;6.57;;;;;;;11.77;75.33;99534.72;5040256;28;20213;-79
2024/03/11 10:06:16;;;;;;;6.80;6.17;;;;;;;11.71;73.70;99541.03;5036446;28;20202;-79
2024/03/11 10:08:45;;;;;;;6.77;6.27;;;;;;;11.49;72.87;99575.78;5035740;28;20217;-76
2024/03/11 10:11:15;;;;;;;5.70;5.30;;;;;;;11.62;72.89;99588.44;5035542;28;20208;-78
2024/03/11 10:13:42;;;;;;;5.60;5.20;;;;;;;11.68;72.65;99582.97;5034722;28;20217;-77
2024/03/11 10:16:16;;;;;;;4.70;4.40;;;;;;;11.75;71.00;99622.81;4700942;28;9999753;-79
2024/03/11 10:18:53;;;;;;;3.50;3.30;;;;;;;11.90;71.36;99648.44;5052078;28;20203;-82
2024/03/11 10:21:19;;;;;;;1.90;1.80;;;;;;;11.70;67.61;99699.66;5053789;28;20264;-80
2024/03/11 10:23:48;;;;;;;1.80;1.70;;;;;;;11.79;68.20;99760.38;5053458;28;20243;-80
2024/03/11 10:26:18;;;;;;;1.90;1.80;;;;;;;11.96;68.83;99773.75;5052600;28;20215;-80
2024/03/11 10:28:45;;;;;;;1.80;1.70;;;;;;;11.67;65.77;99804.34;5051740;28;20296;-80
2024/03/11 10:31:23;;;;;;;1.47;1.37;;;;;;;11.76;66.74;99831.94;5051746;28;20241;-79
2024/03/11 10:33:52;;;;;;;1.13;1.10;;;;;;;11.79;67.09;99844.88;5051652;28;20224;-80
2024/03/11 10:36:20;;;;;;;1.10;1.00;;;;;;;11.88;66.82;99851.59;5032855;28;20205;-80
2024/03/11 10:38:48;;;;;;;1.10;1.10;;;;;;;11.84;66.32;99861.28;5031726;28;20245;-80
2024/03/11 10:41:20;;;;;;;1.30;1.20;;;;;;;11.80;68.01;99869.28;5035845;28;20234;-79
2024/03/11 10:43:47;;;;;;;1.40;1.30;;;;;;;11.69;67.27;99867.00;5039388;28;20217;-79
2024/03/11 10:46:18;;;;;;;1.40;1.30;;;;;;;11.80;68.11;99864.06;5040329;28;20225;-79
2024/03/11 10:48:46;;;;;;;1.17;1.07;;;;;;;12.01;67.71;99846.81;5040346;28;20577;-79
2024/03/11 10:51:18;;;;;;;1.33;1.30;;;;;;;12.05;66.57;99843.19;5040890;28;20283;-80
2024/03/11 10:53:45;;;;;;;1.30;1.20;;;;;;;12.07;66.27;99867.53;5040563;28;20214;-80
2024/03/11 10:56:19;;;;;;;1.43;1.33;;;;;;;12.28;66.25;99881.63;5041197;28;20216;-78
2024/03/11 10:58:52;;;;;;;1.00;1.00;;;;;;;12.32;66.79;99893.69;5040622;28;20212;-78
2024/03/11 11:01:24;;;;;;;1.10;1.10;;;;;;;12.37;67.39;99878.72;5041130;28;20611;-78
2024/03/11 11:03:54;;;;;;;1.20;0.97;;;;;;;12.32;67.31;99872.75;5044877;28;21023;-78
2024/03/11 11:06:27;;;;;;;0.97;0.97;;;;;;;12.25;68.08;99872.13;5059896;28;20197;-82
2024/03/11 11:08:53;;;;;;;1.03;0.90;;;;;;;12.19;68.06;99867.13;5048333;28;20244;-81
2024/03/11 11:11:23;;;;;;;0.70;0.70;;;;;;;12.21;67.96;99867.91;5049286;28;20227;-79
2024/03/11 11:13:54;;;;;;;1.33;0.70;;;;;;;12.27;68.28;99851.16;5047262;28;20200;-79
2024/03/11 11:16:25;;;;;;;0.67;0.67;;;;;;;12.32;68.52;99849.22;5064097;28;20220;-78
2024/03/11 11:18:55;;;;;;;0.50;0.50;;;;;;;12.35;66.78;99877.03;5045928;28;20294;-77
2024/03/11 11:21:23;;;;;;;0.50;0.50;;;;;;;12.35;66.14;99883.13;5038390;28;20211;-77
2024/03/11 11:23:51;;;;;;;0.70;0.70;;;;;;;12.19;65.04;99901.13;5035933;28;20257;-78
2024/03/11 11:26:41;;;;;;;0.50;0.50;;;;;;;12.09;64.60;99934.59;5031349;28;20307;-77